Time;durP1;ratioP1;P1;durP2;ratioP2;P2;SDS_P1;SDS_P2;PMS_P1;PMS_P2;Temp;Humidity;BMP_temperature;BMP_pressure;BME280_temperature;BME280_humidity;BME280_pressure;Samples;Min_cycle;Max_cycle;Signal;HPM_P1;HPM_P2
2022/03/11 00:02:06;;;;;;;16.77;9.30;;;;;;;7.89;43.33;101603.31;5009371;28;20054;-70
2022/03/11 00:04:32;;;;;;;15.65;9.48;;;;;;;7.88;43.83;101598.94;5012674;28;20465;-70
2022/03/11 00:06:57;;;;;;;18.20;8.60;;;;;;;7.84;43.75;101598.50;5012896;28;20120;-70
2022/03/11 00:09:22;;;;;;;15.68;8.85;;;;;;;7.84;44.52;101593.13;5012783;28;20038;-70
2022/03/11 00:11:48;;;;;;;14.07;8.85;;;;;;;7.84;44.18;101598.50;5012378;28;20499;-70
2022/03/11 00:14:13;;;;;;;15.13;9.23;;;;;;;7.84;43.57;101598.50;5027236;28;20061;-70
2022/03/11 00:16:39;;;;;;;15.73;8.80;;;;;;;7.87;43.05;101592.72;5016331;28;20048;-69
2022/03/11 00:19:04;;;;;;;15.27;9.45;;;;;;;7.82;43.72;101584.41;5026973;28;20041;-69
2022/03/11 00:21:29;;;;;;;14.40;8.70;;;;;;;7.80;44.85;101586.41;5012726;28;20034;-70
2022/03/11 00:23:54;;;;;;;17.90;9.55;;;;;;;7.79;44.01;101587.47;5012724;28;20449;-70
2022/03/11 00:26:20;;;;;;;14.38;9.23;;;;;;;7.73;44.44;101585.50;5012343;28;20037;-70
2022/03/11 00:28:45;;;;;;;16.20;9.65;;;;;;;7.75;43.75;101583.47;5012367;28;20452;-70
2022/03/11 00:31:10;;;;;;;16.05;9.93;;;;;;;7.74;44.35;101590.69;5017334;28;20033;-70
2022/03/11 00:33:36;;;;;;;15.23;9.13;;;;;;;7.75;44.55;101583.47;5032426;28;20029;-70
2022/03/11 00:36:01;;;;;;;17.98;9.45;;;;;;;7.70;44.39;101586.72;5017651;28;20049;-70
2022/03/11 00:38:27;;;;;;;18.73;9.55;;;;;;;7.64;44.76;101587.47;5008529;28;20066;-70
2022/03/11 00:40:56;;;;;;;15.70;9.50;;;;;;;7.60;44.09;101587.00;5012304;28;20483;-70
2022/03/11 00:43:23;;;;;;;18.23;9.45;;;;;;;7.61;44.94;101585.16;5011793;28;20121;-69
2022/03/11 00:45:48;;;;;;;18.38;10.20;;;;;;;7.57;45.52;101581.16;5012170;28;20050;-70
2022/03/11 00:48:13;;;;;;;17.50;10.40;;;;;;;7.56;45.03;101574.97;5012803;28;20037;-70
2022/03/11 00:50:38;;;;;;;15.48;9.40;;;;;;;7.51;45.53;101571.97;5012093;28;20100;-69
2022/03/11 00:53:04;;;;;;;16.52;10.00;;;;;;;7.51;44.92;101574.66;5012656;28;20026;-70
2022/03/11 00:55:29;;;;;;;15.85;10.35;;;;;;;7.47;44.96;101570.66;5011981;28;20038;-70
2022/03/11 00:57:54;;;;;;;22.17;10.90;;;;;;;7.44;45.04;101568.34;5012635;28;20022;-70
2022/03/11 01:00:19;;;;;;;21.13;10.77;;;;;;;7.41;45.57;101566.88;5011641;28;20069;-69
2022/03/11 01:02:45;;;;;;;17.42;10.43;;;;;;;7.36;45.56;101560.38;5008905;28;20485;-70
2022/03/11 01:05:11;;;;;;;18.60;10.82;;;;;;;7.33;45.19;101558.06;5012291;28;20076;-70
2022/03/11 01:07:37;;;;;;;19.95;10.65;;;;;;;7.34;45.98;101559.75;5012291;28;20083;-70
2022/03/11 01:10:04;;;;;;;20.05;10.75;;;;;;;7.26;45.58;101556.13;5012010;28;20461;-70
2022/03/11 01:12:29;;;;;;;17.70;10.43;;;;;;;7.21;45.59;101544.22;5012057;28;20040;-70
2022/03/11 01:14:54;;;;;;;18.40;10.82;;;;;;;7.24;45.90;101547.38;5011927;28;20388;-69
2022/03/11 01:17:19;;;;;;;23.60;10.77;;;;;;;7.19;46.62;101547.09;5011732;28;20022;-69
2022/03/11 01:19:45;;;;;;;18.35;10.60;;;;;;;7.19;46.69;101539.03;5012236;28;20026;-69
2022/03/11 01:22:10;;;;;;;19.77;11.07;;;;;;;7.17;45.76;101533.00;5012131;28;20033;-69
2022/03/11 01:24:35;;;;;;;17.42;10.70;;;;;;;7.13;45.08;101542.47;5011475;28;20567;-70
2022/03/11 01:27:01;;;;;;;22.27;10.60;;;;;;;7.16;45.25;101531.31;5012105;28;20030;-69
2022/03/11 01:29:26;;;;;;;20.15;10.55;;;;;;;7.15;46.26;101526.94;5011931;28;20461;-69
2022/03/11 01:31:52;;;;;;;18.67;10.35;;;;;;;7.12;45.69;101521.94;5015675;28;20084;-70
2022/03/11 01:34:18;;;;;;;16.00;10.25;;;;;;;7.08;45.05;101526.00;5014959;28;20034;-69
2022/03/11 01:36:43;;;;;;;19.60;11.15;;;;;;;7.05;45.53;101519.16;5015884;28;20030;-70
2022/03/11 01:39:09;;;;;;;17.40;10.05;;;;;;;7.03;45.82;101521.19;5015663;28;20511;-70
2022/03/11 01:41:35;;;;;;;16.33;10.40;;;;;;;7.02;46.43;101513.28;5014878;28;20030;-69
2022/03/11 01:44:03;;;;;;;17.83;10.50;;;;;;;6.97;45.99;101510.34;5015482;28;20548;-69
2022/03/11 01:46:29;;;;;;;18.40;10.40;;;;;;;6.98;46.52;101501.25;5015126;28;20065;-70
2022/03/11 01:48:56;;;;;;;19.40;10.68;;;;;;;6.99;45.87;101497.53;5015480;28;20029;-70
2022/03/11 01:51:21;;;;;;;16.30;10.60;;;;;;;6.95;45.71;101496.25;5014637;28;20113;-69
2022/03/11 01:53:46;;;;;;;16.67;10.07;;;;;;;6.89;46.24;101490.56;5015092;28;20112;-69
2022/03/11 01:56:13;;;;;;;18.88;10.52;;;;;;;6.85;46.00;101486.56;5030626;28;20029;-69
2022/03/11 01:58:39;;;;;;;16.42;10.63;;;;;;;6.83;45.49;101488.63;5030342;28;20041;-70
2022/03/11 02:01:04;;;;;;;18.95;10.70;;;;;;;6.86;46.55;101484.72;5011691;28;20624;-70
2022/03/11 02:03:31;;;;;;;17.48;10.93;;;;;;;6.84;45.68;101473.31;5015098;28;20033;-70
2022/03/11 02:05:59;;;;;;;16.90;10.65;;;;;;;6.80;46.85;101478.22;5014553;28;20026;-70
2022/03/11 02:08:24;;;;;;;16.92;10.65;;;;;;;6.76;46.48;101468.84;5015166;28;20030;-70
2022/03/11 02:10:49;;;;;;;16.77;10.40;;;;;;;6.80;45.91;101478.22;5014841;28;20376;-70
2022/03/11 02:13:15;;;;;;;18.92;10.63;;;;;;;6.75;46.13;101469.88;5015120;28;20037;-69
2022/03/11 02:15:40;;;;;;;23.80;10.52;;;;;;;6.68;46.13;101459.00;5014603;28;20092;-69
2022/03/11 02:18:05;;;;;;;16.55;10.23;;;;;;;6.68;46.76;101459.00;5014939;28;20491;-69
2022/03/11 02:20:31;;;;;;;18.58;10.82;;;;;;;6.67;46.39;101456.50;5014736;28;20039;-70
2022/03/11 02:22:57;;;;;;;18.85;11.05;;;;;;;6.69;47.01;101446.41;5015443;28;20034;-69
2022/03/11 02:25:22;;;;;;;17.17;9.90;;;;;;;6.66;45.63;101449.47;5014498;28;20030;-69
2022/03/11 02:27:48;;;;;;;19.33;10.68;;;;;;;6.64;46.17;101440.75;5015023;28;20037;-69
2022/03/11 02:30:19;;;;;;;17.92;9.73;;;;;;;6.65;45.46;101442.44;5014790;28;20091;-69
2022/03/11 02:32:45;;;;;;;16.13;10.82;;;;;;;6.61;46.49;101443.81;5014417;28;20116;-69
2022/03/11 02:35:11;;;;;;;17.73;10.93;;;;;;;6.57;45.85;101435.28;5014418;28;20112;-70
2022/03/11 02:37:37;;;;;;;18.65;11.35;;;;;;;6.57;45.51;101436.09;5014531;28;20030;-70
2022/03/11 02:40:04;;;;;;;17.35;10.27;;;;;;;6.55;45.76;101427.41;5013868;28;20038;-69
2022/03/11 02:42:30;;;;;;;18.20;10.30;;;;;;;6.56;46.21;101428.22;5013027;28;20496;-70
2022/03/11 02:44:58;;;;;;;17.58;10.13;;;;;;;6.49;45.88;101420.06;5013941;28;20030;-70
2022/03/11 02:47:23;;;;;;;17.23;10.15;;;;;;;6.54;45.98;101425.72;5014466;28;20105;-70
2022/03/11 02:49:49;;;;;;;22.67;10.50;;;;;;;6.50;46.16;101427.09;5014036;28;20053;-70
2022/03/11 02:52:14;;;;;;;17.33;10.65;;;;;;;6.46;46.78;101420.44;5014392;28;20117;-70
2022/03/11 02:54:39;;;;;;;19.67;10.73;;;;;;;6.52;45.54;101426.91;5013503;28;20415;-69
2022/03/11 02:57:04;;;;;;;17.80;10.73;;;;;;;6.49;46.14;101422.75;5014002;28;20081;-69
2022/03/11 02:59:30;;;;;;;16.80;9.80;;;;;;;6.49;45.86;101425.44;5013616;28;20024;-70
2022/03/11 03:01:55;;;;;;;15.40;9.93;;;;;;;6.50;45.62;101410.97;5010702;28;20050;-69
2022/03/11 03:04:20;;;;;;;15.40;10.00;;;;;;;6.52;45.48;101416.16;5013215;28;20117;-70
2022/03/11 03:06:46;;;;;;;15.93;10.10;;;;;;;6.52;45.86;101417.00;5013864;28;20052;-69
2022/03/11 03:09:11;;;;;;;17.38;10.40;;;;;;;6.50;45.94;101413.66;5013761;28;20029;-69
2022/03/11 03:11:36;;;;;;;16.00;10.40;;;;;;;6.50;46.46;101413.66;5013983;28;20033;-69
2022/03/11 03:14:02;;;;;;;14.95;9.75;;;;;;;6.48;45.66;101409.50;5013268;28;20030;-70
2022/03/11 03:16:28;;;;;;;17.13;9.65;;;;;;;6.42;46.23;101413.75;5013583;28;20108;-69
2022/03/11 03:18:53;;;;;;;18.20;10.23;;;;;;;6.43;45.30;101407.38;5013835;28;20081;-70
2022/03/11 03:21:18;;;;;;;16.02;9.60;;;;;;;6.42;45.95;101405.69;5013515;28;20029;-69
2022/03/11 03:23:44;;;;;;;15.93;10.07;;;;;;;6.36;45.35;101409.13;5013500;28;20037;-69
2022/03/11 03:26:09;;;;;;;15.23;10.27;;;;;;;6.36;46.20;101403.72;5012904;28;20034;-70
2022/03/11 03:28:34;;;;;;;19.15;9.90;;;;;;;6.38;46.76;101412.44;5013303;28;20026;-73
2022/03/11 03:31:01;;;;;;;18.40;10.50;;;;;;;6.36;46.32;101406.41;5013860;28;20381;-71
2022/03/11 03:33:26;;;;;;;17.75;9.80;;;;;;;6.33;45.61;101410.31;5013516;28;20040;-68
2022/03/11 03:35:51;;;;;;;21.80;9.80;;;;;;;6.32;45.90;101397.03;5012597;28;20030;-70
2022/03/11 03:38:17;;;;;;;15.73;10.07;;;;;;;6.32;45.50;101405.94;5013318;28;20065;-69
2022/03/11 03:40:42;;;;;;;17.02;10.02;;;;;;;6.29;45.57;101405.47;5013042;28;20703;-69
2022/03/11 03:43:07;;;;;;;15.40;9.75;;;;;;;6.28;45.36;101403.78;5012926;28;20119;-69
2022/03/11 03:45:32;;;;;;;20.13;9.98;;;;;;;6.25;46.21;101396.97;5011951;28;20042;-69
2022/03/11 03:48:00;;;;;;;15.30;9.68;;;;;;;6.25;45.53;101399.66;5013684;28;20458;-69
2022/03/11 03:50:26;;;;;;;16.15;9.30;;;;;;;6.24;46.04;101407.88;5013344;28;20083;-69
2022/03/11 03:52:51;;;;;;;14.40;9.15;;;;;;;6.20;45.91;101402.88;5013182;28;20034;-69
2022/03/11 03:55:16;;;;;;;13.93;9.05;;;;;;;6.24;46.38;101397.13;5012714;28;20052;-69
2022/03/11 03:57:41;;;;;;;17.20;9.20;;;;;;;6.21;45.10;101395.66;5012936;28;20038;-69
2022/03/11 04:00:08;;;;;;;20.58;9.68;;;;;;;6.20;46.95;101408.25;5013151;28;20065;-69
2022/03/11 04:02:33;;;;;;;17.35;9.52;;;;;;;6.16;45.98;101398.88;5008602;28;20046;-69
2022/03/11 04:04:58;;;;;;;18.80;10.05;;;;;;;6.12;46.14;101400.25;5012573;28;20468;-70
2022/03/11 04:07:24;;;;;;;15.70;9.45;;;;;;;6.17;45.86;101400.53;5012994;28;20034;-69
2022/03/11 04:09:49;;;;;;;14.38;9.43;;;;;;;6.13;45.99;101399.25;5012347;28;20037;-69
2022/03/11 04:12:15;;;;;;;15.63;9.50;;;;;;;6.13;46.39;101393.88;5012912;28;20080;-69
2022/03/11 04:14:40;;;;;;;16.33;9.43;;;;;;;6.13;46.49;101396.56;5012305;28;20476;-69
2022/03/11 04:17:05;;;;;;;14.93;9.32;;;;;;;6.18;46.48;101391.47;5012612;28;20080;-69
2022/03/11 04:19:31;;;;;;;16.67;8.82;;;;;;;6.11;44.92;101392.38;5012386;28;20492;-69
2022/03/11 04:21:56;;;;;;;15.77;9.40;;;;;;;6.10;46.41;101390.69;5012607;28;20059;-69
2022/03/11 04:24:23;;;;;;;17.58;9.20;;;;;;;6.09;46.35;101389.03;5012437;28;20037;-69
2022/03/11 04:26:48;;;;;;;19.02;9.63;;;;;;;6.06;45.79;101389.41;5012486;28;20034;-69
2022/03/11 04:29:13;;;;;;;16.13;9.50;;;;;;;6.05;46.12;101383.19;5012567;28;20026;-69
2022/03/11 04:31:39;;;;;;;15.77;9.35;;;;;;;6.00;45.72;101370.28;5012700;28;20531;-69
2022/03/11 04:34:05;;;;;;;13.95;9.23;;;;;;;5.98;45.76;101376.88;5022312;28;20022;-69
2022/03/11 04:36:38;;;;;;;14.40;8.75;;;;;;;6.02;45.31;101367.44;5012546;28;20057;-69
2022/03/11 04:39:04;;;;;;;14.90;9.32;;;;;;;5.95;45.66;101366.44;5012171;28;20026;-69
2022/03/11 04:41:29;;;;;;;14.18;9.85;;;;;;;5.99;45.31;101370.47;5011044;28;20113;-69
2022/03/11 04:43:55;;;;;;;14.75;8.82;;;;;;;6.00;46.34;101377.53;5012386;28;20188;-69
2022/03/11 04:46:20;;;;;;;18.58;9.30;;;;;;;5.97;45.53;101373.34;5011703;28;20061;-69
2022/03/11 04:48:47;;;;;;;16.20;8.68;;;;;;;5.95;45.95;101364.63;5011960;28;20034;-69
2022/03/11 04:51:13;;;;;;;12.68;8.68;;;;;;;5.96;45.97;101368.13;5012559;28;20033;-69
2022/03/11 04:53:39;;;;;;;14.20;9.23;;;;;;;5.95;45.02;101371.81;5012218;28;20586;-69
2022/03/11 04:56:04;;;;;;;17.77;9.13;;;;;;;5.98;46.13;101371.53;5011951;28;20034;-69
2022/03/11 04:58:29;;;;;;;17.25;8.65;;;;;;;5.94;45.46;101365.63;5011487;28;20041;-69
2022/03/11 05:00:54;;;;;;;13.98;8.80;;;;;;;5.91;45.66;101368.66;5010075;28;20046;-69
2022/03/11 05:03:20;;;;;;;13.48;8.55;;;;;;;5.91;45.45;101365.16;5011607;28;20142;-69
2022/03/11 05:05:45;;;;;;;14.30;8.45;;;;;;;5.95;45.25;101369.13;5014070;28;20404;-69
2022/03/11 05:08:11;;;;;;;13.98;8.60;;;;;;;5.93;45.83;101368.50;5016266;28;20053;-69
2022/03/11 05:10:36;;;;;;;13.23;8.73;;;;;;;5.93;45.80;101365.81;5015991;28;20034;-69
2022/03/11 05:13:02;;;;;;;14.52;9.25;;;;;;;5.94;45.21;101364.78;5016197;28;20423;-69
2022/03/11 05:15:27;;;;;;;15.30;8.40;;;;;;;5.88;45.89;101360.16;5015973;28;20030;-69
2022/03/11 05:17:52;;;;;;;16.33;8.88;;;;;;;5.89;44.95;101364.50;5015477;28;20030;-69
2022/03/11 05:20:18;;;;;;;15.27;8.68;;;;;;;5.87;45.78;101359.28;5016065;28;20053;-69
2022/03/11 05:22:43;;;;;;;15.75;8.93;;;;;;;5.85;45.62;101359.47;5015570;28;20400;-69
2022/03/11 05:25:10;;;;;;;15.18;8.95;;;;;;;5.88;46.11;101368.22;5015071;28;20465;-69
2022/03/11 05:27:37;;;;;;;13.75;8.30;;;;;;;5.83;46.16;101353.47;5015836;28;20034;-69
2022/03/11 05:30:03;;;;;;;18.92;8.52;;;;;;;5.84;45.40;101357.84;5015921;28;20038;-69
2022/03/11 05:32:29;;;;;;;13.10;8.13;;;;;;;5.80;45.43;101347.63;5015723;28;20037;-69
2022/03/11 05:34:55;;;;;;;13.02;9.02;;;;;;;5.79;46.24;101357.53;5015169;28;20033;-69
2022/03/11 05:37:20;;;;;;;16.75;8.98;;;;;;;5.77;45.94;101359.56;5015839;28;20030;-69
2022/03/11 05:39:45;;;;;;;14.13;8.55;;;;;;;5.76;46.04;101357.88;5015446;28;20504;-69
2022/03/11 05:42:11;;;;;;;16.13;8.05;;;;;;;5.76;45.99;101357.88;5015731;28;20029;-70
2022/03/11 05:44:36;;;;;;;13.80;8.70;;;;;;;5.74;46.63;101357.25;5014554;28;20042;-69
2022/03/11 05:47:01;;;;;;;12.20;8.43;;;;;;;5.73;45.86;101352.88;5015591;28;20045;-69
2022/03/11 05:49:27;;;;;;;12.73;8.57;;;;;;;5.76;46.79;101363.25;5015373;28;20030;-69
2022/03/11 05:51:52;;;;;;;15.02;9.05;;;;;;;5.74;46.67;101354.56;5015479;28;20389;-69
2022/03/11 05:54:18;;;;;;;16.30;8.85;;;;;;;5.71;46.52;101354.91;5015018;28;20057;-69
2022/03/11 05:56:43;;;;;;;17.30;8.73;;;;;;;5.72;46.54;101353.88;5015095;28;20499;-69
2022/03/11 05:59:09;;;;;;;14.10;8.18;;;;;;;5.72;46.94;101351.19;5015339;28;20026;-69
2022/03/11 06:01:35;;;;;;;14.02;8.60;;;;;;;5.72;47.48;101356.56;5011569;28;20096;-69
2022/03/11 06:04:02;;;;;;;15.18;8.70;;;;;;;5.71;47.28;101349.53;5024456;28;20041;-69
2022/03/11 06:06:30;;;;;;;12.15;8.15;;;;;;;5.70;46.56;101342.50;5014536;28;20108;-69
2022/03/11 06:08:56;;;;;;;14.13;8.55;;;;;;;5.71;46.71;101344.19;4997974;28;20066;-69
2022/03/11 06:11:21;;;;;;;17.45;8.98;;;;;;;5.73;47.67;101347.50;5014586;28;20452;-69
2022/03/11 06:13:46;;;;;;;15.68;8.38;;;;;;;5.72;47.23;101348.50;5014780;28;20030;-69
2022/03/11 06:16:12;;;;;;;13.35;9.00;;;;;;;5.74;47.05;101343.81;5018863;28;20060;-69
2022/03/11 06:18:37;;;;;;;15.82;8.23;;;;;;;5.74;47.71;101343.81;5034876;28;20026;-69
2022/03/11 06:21:02;;;;;;;14.73;8.77;;;;;;;5.76;47.52;101352.50;5023736;28;20030;-69
2022/03/11 06:23:29;;;;;;;15.88;8.60;;;;;;;5.77;47.33;101348.81;5015117;28;20044;-69
2022/03/11 06:25:55;;;;;;;14.25;8.43;;;;;;;5.73;47.60;101346.69;5014900;28;20197;-69
2022/03/11 06:28:20;;;;;;;13.20;8.73;;;;;;;5.77;48.12;101358.75;5015043;28;20038;-69
2022/03/11 06:30:47;;;;;;;13.70;8.65;;;;;;;5.73;47.66;101358.25;4997154;28;20025;-69
2022/03/11 06:33:13;;;;;;;16.40;8.05;;;;;;;5.72;47.47;101347.69;5014529;28;20026;-69
2022/03/11 06:35:38;;;;;;;14.20;8.95;;;;;;;5.74;47.85;101351.88;5014101;28;20498;-69
2022/03/11 06:38:03;;;;;;;19.52;8.80;;;;;;;5.76;47.43;101347.16;5014582;28;20036;-69
2022/03/11 06:40:29;;;;;;;14.18;8.98;;;;;;;5.77;47.35;101342.63;5014573;28;20033;-69
2022/03/11 06:42:54;;;;;;;13.73;8.90;;;;;;;5.76;47.99;101349.81;5013762;28;20536;-69
2022/03/11 06:45:20;;;;;;;21.63;9.45;;;;;;;5.76;47.95;101343.63;5013881;28;20119;-69
2022/03/11 06:47:46;;;;;;;17.73;9.55;;;;;;;5.75;47.62;101345.50;5014158;28;20072;-69
2022/03/11 06:50:13;;;;;;;15.77;8.90;;;;;;;5.76;48.20;101343.63;5014445;28;20110;-69
2022/03/11 06:52:39;;;;;;;17.60;9.45;;;;;;;5.75;48.24;101345.50;5014250;28;20061;-69
2022/03/11 06:55:05;;;;;;;17.30;8.77;;;;;;;5.78;48.13;101358.56;5014592;28;20453;-69
2022/03/11 06:57:31;;;;;;;16.95;8.98;;;;;;;5.76;48.40;101343.63;5014140;28;20105;-69
2022/03/11 06:59:56;;;;;;;15.90;9.10;;;;;;;5.81;47.88;101349.28;5013892;28;20030;-69
2022/03/11 07:02:21;;;;;;;17.27;9.55;;;;;;;5.83;48.20;101336.53;5010847;28;20104;-69
2022/03/11 07:04:47;;;;;;;16.10;9.02;;;;;;;5.84;49.09;101344.41;5013878;28;20029;-69
2022/03/11 07:07:12;;;;;;;17.60;9.35;;;;;;;5.89;47.79;101333.09;5014271;28;20025;-68
2022/03/11 07:09:37;;;;;;;16.80;9.10;;;;;;;5.91;48.26;101341.81;5014004;28;20026;-69
2022/03/11 07:12:03;;;;;;;16.75;9.13;;;;;;;5.96;48.30;101338.56;5013947;28;20469;-68
2022/03/11 07:14:30;;;;;;;15.73;9.60;;;;;;;5.95;48.28;101321.63;5013974;28;20108;-68
2022/03/11 07:16:56;;;;;;;15.93;9.25;;;;;;;5.98;48.23;101325.84;4994329;28;20030;-69
2022/03/11 07:19:23;;;;;;;18.65;9.63;;;;;;;5.98;47.95;101329.34;5007534;28;20034;-68
2022/03/11 07:21:48;;;;;;;15.45;9.00;;;;;;;6.01;47.79;101333.53;5013423;28;20116;-69
2022/03/11 07:24:13;;;;;;;15.05;9.30;;;;;;;6.02;48.16;101327.13;5013915;28;20417;-69
2022/03/11 07:26:39;;;;;;;15.18;9.30;;;;;;;6.09;48.27;101329.94;5013707;28;20038;-70
2022/03/11 07:29:04;;;;;;;15.05;9.20;;;;;;;6.12;48.25;101333.06;5012884;28;20052;-72
2022/03/11 07:31:29;;;;;;;16.05;9.73;;;;;;;6.17;48.26;101333.34;5013573;28;20058;-69
2022/03/11 07:33:55;;;;;;;18.00;9.30;;;;;;;6.20;48.44;101338.38;5021615;28;20034;-69
2022/03/11 07:36:20;;;;;;;15.93;9.18;;;;;;;6.25;48.92;101335.13;5012002;28;20038;-69
2022/03/11 07:38:46;;;;;;;17.77;9.57;;;;;;;6.28;48.59;101333.91;5012893;28;20034;-70
2022/03/11 07:41:14;;;;;;;15.65;9.98;;;;;;;6.33;48.06;101331.53;5003474;28;20026;-70
2022/03/11 07:43:42;;;;;;;16.33;10.05;;;;;;;6.36;47.88;101328.47;5007321;28;20065;-71
2022/03/11 07:46:08;;;;;;;17.98;9.95;;;;;;;6.37;48.02;101339.03;5032834;28;20057;-71
2022/03/11 07:48:33;;;;;;;22.50;10.13;;;;;;;6.40;47.94;101324.38;5027038;28;20469;-70
2022/03/11 07:50:58;;;;;;;14.65;9.35;;;;;;;6.44;48.68;101328.34;5012865;28;20046;-68
2022/03/11 07:53:24;;;;;;;15.30;9.65;;;;;;;6.49;47.99;101325.97;5012983;28;20072;-68
2022/03/11 07:55:49;;;;;;;17.50;9.85;;;;;;;6.54;47.56;101326.22;5012881;28;20026;-68
2022/03/11 07:58:15;;;;;;;20.30;10.73;;;;;;;6.57;47.97;101327.72;5012709;28;20041;-68
2022/03/11 08:00:41;;;;;;;16.40;10.15;;;;;;;6.64;47.76;101317.03;5010205;28;20120;-68
2022/03/11 08:03:07;;;;;;;16.52;10.43;;;;;;;6.67;47.71;101306.75;5012039;28;20404;-69
2022/03/11 08:05:32;;;;;;;18.00;10.07;;;;;;;6.71;47.17;101304.50;5013267;28;20084;-68
2022/03/11 08:07:59;;;;;;;15.98;10.05;;;;;;;6.76;47.87;101302.06;5027891;28;20579;-69
2022/03/11 08:10:24;;;;;;;17.02;10.27;;;;;;;6.82;47.29;101297.81;5013241;28;20061;-69
2022/03/11 08:12:52;;;;;;;16.63;9.77;;;;;;;6.86;47.00;101297.25;5012605;28;20072;-69
2022/03/11 08:15:17;;;;;;;20.40;10.68;;;;;;;6.94;47.25;101303.53;5013011;28;20064;-69
2022/03/11 08:17:43;;;;;;;20.60;10.95;;;;;;;6.98;47.66;101291.38;5012845;28;20454;-69
2022/03/11 08:20:09;;;;;;;17.75;10.40;;;;;;;7.04;47.36;101304.88;5012553;28;20116;-68
2022/03/11 08:22:35;;;;;;;16.33;10.10;;;;;;;7.13;47.69;101297.53;5013164;28;20033;-67
2022/03/11 08:25:00;;;;;;;19.75;10.35;;;;;;;7.20;47.63;101303.81;5012655;28;20026;-68
2022/03/11 08:27:25;;;;;;;16.85;10.05;;;;;;;7.40;48.86;101312.09;5012895;28;20034;-69
2022/03/11 08:29:51;;;;;;;16.17;9.80;;;;;;;7.57;47.43;101306.44;5012373;28;20068;-70
2022/03/11 08:32:16;;;;;;;19.38;10.13;;;;;;;7.76;48.85;101294.16;5012807;28;20493;-69
2022/03/11 08:34:41;;;;;;;19.42;10.23;;;;;;;7.82;46.56;101290.69;5012788;28;20065;-75
2022/03/11 08:37:07;;;;;;;16.33;10.65;;;;;;;7.86;46.67;101305.44;5012437;28;20095;-67
2022/03/11 08:39:32;;;;;;;18.23;10.35;;;;;;;7.91;46.64;101289.53;5011472;28;20050;-71
2022/03/11 08:41:57;;;;;;;16.08;10.20;;;;;;;7.98;47.80;101292.25;5012510;28;20461;-70
2022/03/11 08:44:23;;;;;;;19.88;11.02;;;;;;;7.91;46.36;101285.97;5012675;28;20076;-69
2022/03/11 08:46:48;;;;;;;16.80;10.57;;;;;;;7.90;46.63;101289.72;5012228;28;20049;-70
2022/03/11 08:49:13;;;;;;;21.52;10.88;;;;;;;7.91;46.61;101288.66;5011099;28;20064;-68
2022/03/11 08:51:41;;;;;;;21.83;10.82;;;;;;;7.93;47.18;101283.94;5012492;28;20053;-70
2022/03/11 08:54:06;;;;;;;16.88;10.73;;;;;;;7.96;46.96;101280.84;5011734;28;20053;-69
2022/03/11 08:56:31;;;;;;;18.27;11.30;;;;;;;8.04;47.07;101293.34;5012571;28;20428;-68
2022/03/11 08:58:56;;;;;;;21.10;11.10;;;;;;;8.08;46.12;101281.94;5010770;28;20088;-70
2022/03/11 09:01:22;;;;;;;17.27;10.77;;;;;;;8.15;47.17;101277.44;5008765;28;20206;-69
2022/03/11 09:03:47;;;;;;;20.08;10.85;;;;;;;8.26;47.44;101278.75;5012145;28;20052;-69
2022/03/11 09:06:13;;;;;;;17.02;11.00;;;;;;;8.35;46.35;101276.72;5011902;28;20038;-67
2022/03/11 09:08:38;;;;;;;20.48;11.27;;;;;;;8.40;46.75;101266.16;5012273;28;20088;-68
2022/03/11 09:11:03;;;;;;;21.63;11.27;;;;;;;8.49;47.08;101278.47;5013214;28;20113;-74
2022/03/11 09:13:29;;;;;;;20.30;10.68;;;;;;;8.57;46.23;101274.75;5010811;28;20029;-68
2022/03/11 09:15:54;;;;;;;21.67;10.85;;;;;;;8.66;46.56;101275.41;5012160;28;20059;-69
2022/03/11 09:18:19;;;;;;;19.08;11.48;;;;;;;8.71;45.99;101261.31;5012324;28;20033;-70
2022/03/11 09:20:44;;;;;;;20.55;11.15;;;;;;;8.79;46.34;101269.25;5012070;28;20034;-70
2022/03/11 09:23:11;;;;;;;23.17;10.77;;;;;;;8.88;46.61;101257.25;5010859;28;20077;-70
2022/03/11 09:25:37;;;;;;;17.67;10.80;;;;;;;8.96;46.00;101270.53;5018313;28;20487;-70
2022/03/11 09:28:02;;;;;;;17.17;11.48;;;;;;;9.04;45.63;101256.88;5026385;28;20033;-71
2022/03/11 09:30:27;;;;;;;18.58;11.10;;;;;;;9.12;45.87;101252.28;5011769;28;20034;-70
2022/03/11 09:32:53;;;;;;;22.55;11.30;;;;;;;9.16;45.74;101251.69;5012001;28;20025;-71
2022/03/11 09:35:18;;;;;;;17.75;10.57;;;;;;;9.23;46.17;101257.91;5012107;28;20049;-70
2022/03/11 09:37:43;;;;;;;17.83;10.60;;;;;;;9.31;45.03;101254.16;5011950;28;20030;-70
2022/03/11 09:40:10;;;;;;;24.08;12.35;;;;;;;9.40;45.55;101255.66;5011571;28;20116;-71
2022/03/11 09:42:35;;;;;;;19.35;11.13;;;;;;;9.47;45.65;101250.25;5012208;28;20034;-71
2022/03/11 09:45:02;;;;;;;20.48;10.52;;;;;;;9.54;45.29;101236.72;5011730;28;20030;-73
2022/03/11 09:47:27;;;;;;;20.52;11.18;;;;;;;9.67;45.73;101241.31;5011673;28;20128;-75
2022/03/11 09:49:53;;;;;;;18.63;11.02;;;;;;;9.74;45.06;101242.94;5011387;28;20120;-70
2022/03/11 09:52:23;;;;;;;17.27;11.23;;;;;;;9.83;45.21;101231.91;5015013;28;20694;-71
2022/03/11 09:54:50;;;;;;;18.80;10.18;;;;;;;9.88;45.72;101232.13;5015299;28;20038;-69
2022/03/11 09:57:22;;;;;;;15.27;9.93;;;;;;;9.98;44.58;101220.84;5015608;28;20034;-69
2022/03/11 09:59:48;;;;;;;16.75;10.82;;;;;;;10.06;45.70;101218.75;5007592;28;20034;-68
2022/03/11 10:02:15;;;;;;;17.17;9.82;;;;;;;10.14;45.63;101219.59;5011528;28;20080;-71
2022/03/11 10:04:49;;;;;;;15.98;10.52;;;;;;;10.16;45.46;101212.06;5014820;28;20377;-71
2022/03/11 10:07:28;;;;;;;22.05;10.77;;;;;;;10.26;44.71;101223.28;5015399;28;20038;-72
2022/03/11 10:09:56;;;;;;;20.48;11.13;;;;;;;10.31;45.56;101214.53;5014493;28;20116;-69
2022/03/11 10:12:28;;;;;;;17.42;10.57;;;;;;;10.35;45.04;101211.19;5015264;28;20034;-69
2022/03/11 10:15:04;;;;;;;17.17;10.55;;;;;;;10.40;45.07;101208.69;5015032;28;20041;-70
2022/03/11 10:17:37;;;;;;;23.52;10.73;;;;;;;10.45;44.84;101200.75;5015329;28;20072;-70
2022/03/11 10:20:08;;;;;;;23.27;10.27;;;;;;;10.56;44.66;101198.41;4995347;28;20034;-70
2022/03/11 10:22:35;;;;;;;17.38;10.70;;;;;;;10.62;45.59;101189.44;4995351;28;20030;-68
2022/03/11 10:25:05;;;;;;;19.02;10.75;;;;;;;10.69;44.34;101190.22;4995151;28;20030;-69
2022/03/11 10:27:31;;;;;;;19.50;10.68;;;;;;;10.77;44.97;101183.72;4995101;28;20066;-68
2022/03/11 10:30:02;;;;;;;15.60;10.52;;;;;;;10.90;45.63;101190.91;5013383;28;20111;-68
2022/03/11 10:32:28;;;;;;;18.52;10.77;;;;;;;11.02;45.94;101193.75;5014862;28;20357;-69
2022/03/11 10:34:53;;;;;;;16.58;10.35;;;;;;;11.10;44.75;101180.78;5014602;28;20042;-69
2022/03/11 10:37:19;;;;;;;19.23;11.02;;;;;;;11.17;44.12;101186.13;5014851;28;20060;-68
2022/03/11 10:39:46;;;;;;;21.50;10.80;;;;;;;11.23;44.82;101169.03;5014344;28;20038;-69
2022/03/11 10:42:11;;;;;;;19.42;10.50;;;;;;;11.35;45.12;101172.66;5014513;28;20068;-68
2022/03/11 10:44:37;;;;;;;16.53;10.60;;;;;;;11.46;44.70;101164.84;5014306;28;20074;-67
2022/03/11 10:47:20;;;;;;;18.42;10.50;;;;;;;11.59;44.72;101166.59;5014390;28;20289;-67
2022/03/11 10:49:50;;;;;;;17.92;10.27;;;;;;;11.69;44.10;101161.50;5014338;28;20041;-67
2022/03/11 10:52:29;;;;;;;23.92;10.10;;;;;;;11.74;44.73;101156.22;5014334;28;20034;-68
2022/03/11 10:54:54;;;;;;;15.88;9.80;;;;;;;11.81;44.73;101151.53;5014435;28;20030;-67
2022/03/11 10:57:21;;;;;;;16.15;10.15;;;;;;;11.91;44.15;101153.72;5014216;28;20076;-68
2022/03/11 10:59:46;;;;;;;19.88;10.02;;;;;;;11.99;43.67;101156.16;5014147;28;20045;-67
2022/03/11 11:02:12;;;;;;;18.25;10.45;;;;;;;11.99;43.23;101142.59;5010362;28;20073;-68
2022/03/11 11:04:39;;;;;;;18.55;10.52;;;;;;;12.05;43.05;101144.41;5013831;28;20117;-68
2022/03/11 11:07:06;;;;;;;22.70;11.38;;;;;;;12.11;43.48;101142.69;5014071;28;20037;-67
2022/03/11 11:09:31;;;;;;;309.73;23.70;;;;;;;12.18;44.55;101137.16;5013977;28;20053;-70
2022/03/11 11:11:57;;;;;;;16.15;10.90;;;;;;;12.28;44.23;101142.06;5013691;28;20065;-68
2022/03/11 11:14:23;;;;;;;22.95;11.20;;;;;;;12.34;43.41;101143.84;5014105;28;20083;-70